createdAt,value
2019-01-15T00:01:28.438Z,1.30
2019-01-15T00:03:58.782Z,0.97
2019-01-15T00:06:29.008Z,0.40
2019-01-15T00:08:59.289Z,0.40
2019-01-15T00:11:29.601Z,0.40
2019-01-15T00:13:59.893Z,0.30
2019-01-15T00:16:30.365Z,0.20
2019-01-15T00:19:00.726Z,0.30
2019-01-15T00:21:31.107Z,0.30
2019-01-15T00:24:01.428Z,0.30
2019-01-15T00:26:31.611Z,0.20
2019-01-15T00:29:01.936Z,0.30
2019-01-15T00:31:32.195Z,0.33
2019-01-15T00:34:02.436Z,0.40
2019-01-15T00:36:32.687Z,0.33
2019-01-15T00:39:03.277Z,0.33
2019-01-15T00:41:33.655Z,0.30
2019-01-15T00:44:04.018Z,0.23
2019-01-15T00:46:34.545Z,0.40
2019-01-15T00:49:04.893Z,0.30
2019-01-15T00:51:35.143Z,0.50
2019-01-15T00:54:05.526Z,0.27
2019-01-15T00:56:35.768Z,0.30
2019-01-15T00:59:05.981Z,0.30
2019-01-15T01:01:36.304Z,0.37
2019-01-15T01:04:06.646Z,0.30
2019-01-15T01:06:36.871Z,0.40
2019-01-15T01:09:11.065Z,0.30
2019-01-15T01:11:41.291Z,0.30
2019-01-15T01:14:11.533Z,0.30
2019-01-15T01:16:41.822Z,0.20
2019-01-15T01:19:12.133Z,0.30
2019-01-15T01:21:42.391Z,0.40
2019-01-15T01:24:12.689Z,0.20
2019-01-15T01:26:43.068Z,0.20
2019-01-15T01:29:13.243Z,0.30
2019-01-15T01:31:43.549Z,0.20
2019-01-15T01:34:13.835Z,0.20
2019-01-15T01:36:44.052Z,0.30
2019-01-15T01:39:14.428Z,0.30
2019-01-15T01:41:44.657Z,0.23
2019-01-15T01:44:14.882Z,0.30
2019-01-15T01:46:45.209Z,0.20
2019-01-15T01:49:15.411Z,0.37
2019-01-15T01:51:45.659Z,0.30
2019-01-15T01:54:15.977Z,0.53
2019-01-15T01:56:46.318Z,0.80
2019-01-15T01:59:16.594Z,0.87
2019-01-15T02:01:46.916Z,0.70
2019-01-15T02:04:17.186Z,0.60
2019-01-15T02:06:47.405Z,0.37
2019-01-15T02:09:17.890Z,0.80
2019-01-15T02:11:48.037Z,0.80
2019-01-15T02:14:18.194Z,0.90
2019-01-15T02:16:48.552Z,0.43
2019-01-15T02:19:18.875Z,0.50
2019-01-15T02:21:49.041Z,0.40
2019-01-15T02:24:19.641Z,0.30
2019-01-15T02:26:51.508Z,0.47
2019-01-15T02:29:21.872Z,0.37
2019-01-15T02:31:52.024Z,0.37
2019-01-15T02:34:22.261Z,0.30
2019-01-15T02:36:52.523Z,0.33
2019-01-15T02:39:22.778Z,0.50
2019-01-15T02:41:53.142Z,0.67
2019-01-15T02:44:23.356Z,0.60
2019-01-15T02:46:53.701Z,0.50
2019-01-15T02:49:23.915Z,0.43
2019-01-15T02:51:54.114Z,0.40
2019-01-15T02:54:24.446Z,0.27
2019-01-15T02:56:54.702Z,0.50
2019-01-15T02:59:25.079Z,0.33
2019-01-15T03:01:55.382Z,0.33
2019-01-15T03:04:25.632Z,0.40
2019-01-15T03:06:55.898Z,0.30
2019-01-15T03:09:26.376Z,0.30
2019-01-15T03:11:56.630Z,0.40
2019-01-15T03:14:26.822Z,0.70
2019-01-15T03:16:57.247Z,0.50
2019-01-15T03:19:27.668Z,0.47
2019-01-15T03:21:57.914Z,0.50
2019-01-15T03:24:28.299Z,0.67
2019-01-15T03:26:58.641Z,0.70
2019-01-15T03:29:28.842Z,0.43
2019-01-15T03:31:59.089Z,0.60
2019-01-15T03:34:29.345Z,1.10
2019-01-15T03:37:00.650Z,0.73
2019-01-15T03:39:30.968Z,0.80
2019-01-15T03:42:01.264Z,1.00
2019-01-15T03:44:31.579Z,1.00
2019-01-15T03:47:01.948Z,1.20
2019-01-15T03:49:32.199Z,1.37
2019-01-15T03:52:02.434Z,1.13
2019-01-15T03:54:32.746Z,1.63
2019-01-15T03:57:03.142Z,1.60
2019-01-15T03:59:33.404Z,1.83
2019-01-15T04:02:03.714Z,1.87
2019-01-15T04:04:34.049Z,1.67
2019-01-15T04:07:04.682Z,1.40
2019-01-15T04:09:35.471Z,1.70
2019-01-15T04:12:05.729Z,1.63
2019-01-15T04:14:36.121Z,1.50
2019-01-15T04:17:06.527Z,1.67
2019-01-15T04:19:36.922Z,1.07
2019-01-15T04:22:07.165Z,1.47
2019-01-15T04:24:37.550Z,1.57
2019-01-15T04:27:07.868Z,1.67
2019-01-15T04:29:38.100Z,1.20
2019-01-15T04:32:08.406Z,1.17
2019-01-15T04:34:38.758Z,1.50
2019-01-15T04:37:08.949Z,1.50
2019-01-15T04:39:39.316Z,1.40
2019-01-15T04:42:09.804Z,1.40
2019-01-15T04:44:40.114Z,1.60
2019-01-15T04:47:10.634Z,1.27
2019-01-15T04:49:40.868Z,1.77
2019-01-15T04:52:11.111Z,1.60
2019-01-15T04:54:41.518Z,1.63
2019-01-15T04:57:12.107Z,1.60
2019-01-15T04:59:42.493Z,2.13
2019-01-15T05:02:12.789Z,1.73
2019-01-15T05:04:43.106Z,1.87
2019-01-15T05:07:13.396Z,1.80
2019-01-15T05:09:43.856Z,1.70
2019-01-15T05:12:14.098Z,1.60
2019-01-15T05:14:44.328Z,1.70
2019-01-15T05:17:14.639Z,1.67
2019-01-15T05:19:44.896Z,1.93
2019-01-15T05:22:15.195Z,1.90
2019-01-15T05:24:45.453Z,1.83
2019-01-15T05:27:15.760Z,2.00
2019-01-15T05:29:46.089Z,2.63
2019-01-15T05:32:16.350Z,2.93
2019-01-15T05:34:46.606Z,3.83
2019-01-15T05:37:16.773Z,4.03
2019-01-15T05:39:47.001Z,4.53
2019-01-15T05:42:17.257Z,4.50
2019-01-15T05:44:47.498Z,4.87
2019-01-15T05:47:19.256Z,5.20
2019-01-15T05:49:50.778Z,5.20
2019-01-15T05:52:21.234Z,5.43
2019-01-15T05:54:51.546Z,4.37
2019-01-15T05:57:21.816Z,4.13
2019-01-15T05:59:52.000Z,4.37
2019-01-15T06:02:22.285Z,5.03
2019-01-15T06:04:52.584Z,4.90
2019-01-15T06:07:22.895Z,5.03
2019-01-15T06:09:53.142Z,5.77
2019-01-15T06:12:23.394Z,5.63
2019-01-15T06:14:53.666Z,5.47
2019-01-15T06:17:24.051Z,6.03
2019-01-15T06:19:54.327Z,5.70
2019-01-15T06:22:24.500Z,6.33
2019-01-15T06:24:54.839Z,4.40
2019-01-15T06:27:25.170Z,5.20
2019-01-15T06:29:55.374Z,5.77
2019-01-15T06:32:25.668Z,5.33
2019-01-15T06:34:55.938Z,4.70
2019-01-15T06:37:26.159Z,5.20
2019-01-15T06:39:56.403Z,4.77
2019-01-15T06:42:26.568Z,5.13
2019-01-15T06:44:56.838Z,4.83
2019-01-15T06:47:27.092Z,5.20
2019-01-15T06:49:57.327Z,5.43
2019-01-15T06:52:27.601Z,4.80
2019-01-15T06:54:57.929Z,5.43
2019-01-15T06:57:28.185Z,5.33
2019-01-15T06:59:58.422Z,4.80
2019-01-15T07:02:28.738Z,5.10
2019-01-15T07:04:59.013Z,4.87
2019-01-15T07:07:29.515Z,5.43
2019-01-15T07:09:59.804Z,4.73
2019-01-15T07:12:30.069Z,4.93
2019-01-15T07:15:00.294Z,4.70
2019-01-15T07:17:30.558Z,4.77
2019-01-15T07:20:00.870Z,4.40
2019-01-15T07:22:31.142Z,4.63
2019-01-15T07:25:01.472Z,4.20
2019-01-15T07:27:31.865Z,4.93
2019-01-15T07:30:02.095Z,4.60
2019-01-15T07:32:32.441Z,4.50
2019-01-15T07:35:02.700Z,4.57
2019-01-15T07:37:33.057Z,4.80
2019-01-15T07:40:03.357Z,5.10
2019-01-15T07:42:33.602Z,5.90
2019-01-15T07:45:03.989Z,5.93
2019-01-15T07:47:34.261Z,6.30
2019-01-15T07:50:05.645Z,6.80
2019-01-15T07:52:35.767Z,6.60
2019-01-15T07:55:06.995Z,7.30
2019-01-15T07:57:37.349Z,5.83
2019-01-15T08:00:09.493Z,5.27
2019-01-15T08:02:39.908Z,6.30
2019-01-15T08:05:10.973Z,5.47
2019-01-15T08:07:41.190Z,6.33
2019-01-15T08:10:12.921Z,5.53
2019-01-15T08:12:43.225Z,4.57
2019-01-15T08:15:16.489Z,5.33
2019-01-15T08:17:46.786Z,5.20
2019-01-15T08:20:17.035Z,5.47
2019-01-15T08:22:47.391Z,6.10
2019-01-15T08:25:17.616Z,4.63
2019-01-15T08:27:47.885Z,4.77
2019-01-15T08:30:23.324Z,5.30
2019-01-15T08:32:53.737Z,5.80
2019-01-15T08:35:24.155Z,6.07
2019-01-15T08:37:54.525Z,5.40
2019-01-15T08:40:25.020Z,5.10
2019-01-15T08:42:55.305Z,5.20
2019-01-15T08:45:25.657Z,5.27
2019-01-15T08:48:18.062Z,5.97
2019-01-15T08:50:50.185Z,5.17
2019-01-15T08:53:23.315Z,5.07
2019-01-15T08:55:57.168Z,5.00
2019-01-15T08:58:27.757Z,5.47
2019-01-15T09:00:57.986Z,4.53
2019-01-15T09:03:28.288Z,4.60
2019-01-15T09:05:58.227Z,4.83
2019-01-15T09:08:28.431Z,6.47
2019-01-15T09:10:58.883Z,6.60
2019-01-15T09:13:29.244Z,7.20
2019-01-15T09:15:59.475Z,6.37
2019-01-15T09:18:29.904Z,4.97
2019-01-15T09:21:00.267Z,5.17
2019-01-15T09:23:30.590Z,5.40
2019-01-15T09:26:00.924Z,5.30
2019-01-15T09:28:31.150Z,4.97
2019-01-15T09:31:01.251Z,5.10
2019-01-15T09:33:31.678Z,4.87
2019-01-15T09:36:02.039Z,4.33
2019-01-15T09:38:32.424Z,4.53
2019-01-15T09:41:02.706Z,4.80
2019-01-15T09:43:32.964Z,4.53
2019-01-15T09:46:03.238Z,4.50
2019-01-15T09:48:35.393Z,4.20
2019-01-15T09:51:05.746Z,4.23
2019-01-15T09:53:35.922Z,3.93
2019-01-15T09:56:06.308Z,4.20
2019-01-15T09:58:36.659Z,4.47
2019-01-15T10:01:07.176Z,4.47
2019-01-15T10:03:37.510Z,4.37
2019-01-15T10:06:07.620Z,4.00
2019-01-15T10:08:40.676Z,4.20
2019-01-15T10:11:11.018Z,3.87
2019-01-15T10:13:41.274Z,3.30
2019-01-15T10:16:12.709Z,4.00
2019-01-15T10:18:42.941Z,3.80
2019-01-15T10:21:13.285Z,4.47
2019-01-15T10:23:44.459Z,4.30
2019-01-15T10:26:14.635Z,4.30
2019-01-15T10:28:45.081Z,4.13
2019-01-15T10:32:00.308Z,4.17
2019-01-15T10:34:34.899Z,3.87
2019-01-15T10:37:02.912Z,3.93
2019-01-15T10:39:33.461Z,4.20
2019-01-15T10:42:03.605Z,3.43
2019-01-15T10:44:33.812Z,4.67
2019-01-15T10:47:03.997Z,4.37
2019-01-15T10:49:34.185Z,4.40
2019-01-15T10:52:04.186Z,4.10
2019-01-15T10:54:34.448Z,4.33
2019-01-15T10:57:04.830Z,4.30
2019-01-15T10:59:35.019Z,4.37
2019-01-15T11:02:05.469Z,3.83
2019-01-15T11:04:35.845Z,3.50
2019-01-15T11:07:06.206Z,4.50
2019-01-15T11:09:36.399Z,4.10
2019-01-15T11:12:06.825Z,4.23
2019-01-15T11:14:37.712Z,3.93
2019-01-15T11:17:08.804Z,4.03
2019-01-15T11:19:39.174Z,4.37
2019-01-15T11:22:09.348Z,4.30
2019-01-15T11:24:39.638Z,4.30
2019-01-15T11:27:09.958Z,4.17
2019-01-15T11:29:40.184Z,4.30
2019-01-15T11:32:10.797Z,4.27
2019-01-15T11:34:41.194Z,3.63
2019-01-15T11:37:11.383Z,3.80
2019-01-15T11:39:41.705Z,3.60
2019-01-15T11:42:12.093Z,3.67
2019-01-15T11:44:42.301Z,4.43
2019-01-15T11:47:12.581Z,4.20
2019-01-15T11:49:42.795Z,3.87
2019-01-15T11:52:13.082Z,4.60
2019-01-15T11:54:43.556Z,3.73
2019-01-15T11:57:13.472Z,4.00
2019-01-15T11:59:43.588Z,3.50
2019-01-15T12:02:44.835Z,3.67
2019-01-15T12:05:36.685Z,4.27
2019-01-15T12:08:24.804Z,3.47
2019-01-15T12:11:12.536Z,3.70
2019-01-15T12:14:09.994Z,3.83
2019-01-15T12:16:58.138Z,3.80
2019-01-15T12:19:38.485Z,3.00
2019-01-15T12:22:26.534Z,3.17
2019-01-15T12:25:23.896Z,3.13
2019-01-15T12:28:04.149Z,3.63
2019-01-15T12:30:46.146Z,2.80
2019-01-15T12:33:46.910Z,2.20
2019-01-15T12:36:29.277Z,2.60
2019-01-15T12:39:24.256Z,2.90
2019-01-15T12:42:12.534Z,3.00
2019-01-15T12:45:00.561Z,2.43
2019-01-15T12:47:52.365Z,2.20
2019-01-15T12:50:32.657Z,2.20
2019-01-15T12:53:39.743Z,2.50
2019-01-15T12:56:22.869Z,2.57
2019-01-15T12:59:14.758Z,2.53
2019-01-15T13:02:02.324Z,2.80
2019-01-15T13:04:54.355Z,2.90
2019-01-15T13:07:51.401Z,2.53
2019-01-15T13:10:43.541Z,2.10
2019-01-15T13:13:30.450Z,3.13
2019-01-15T13:16:17.589Z,2.07
2019-01-15T13:19:09.123Z,2.83
2019-01-15T13:21:52.473Z,2.03
2019-01-15T13:24:38.409Z,2.20
2019-01-15T13:27:33.514Z,2.60
2019-01-15T13:30:14.356Z,2.27
2019-01-15T13:32:57.713Z,2.20
2019-01-15T13:35:45.566Z,2.07
2019-01-15T13:38:52.841Z,2.63
2019-01-15T13:41:41.900Z,2.00
2019-01-15T13:44:31.519Z,2.00
2019-01-15T13:47:24.736Z,2.27
2019-01-15T13:50:25.249Z,2.53
2019-01-15T13:53:31.123Z,2.53
2019-01-15T13:56:40.155Z,3.00
2019-01-15T13:59:32.152Z,2.53
2019-01-15T14:02:14.949Z,2.40
2019-01-15T14:05:01.950Z,3.03
2019-01-15T14:07:56.102Z,2.10
2019-01-15T14:10:49.259Z,2.30
2019-01-15T14:13:49.279Z,2.37
2019-01-15T14:16:48.887Z,2.33
2019-01-15T14:19:39.594Z,2.27
2019-01-15T14:22:27.525Z,2.43
2019-01-15T14:25:25.659Z,2.27
2019-01-15T14:28:15.994Z,2.20
2019-01-15T14:31:17.227Z,2.27
2019-01-15T14:34:05.163Z,2.63
2019-01-15T14:36:54.590Z,2.63
2019-01-15T14:39:45.965Z,2.40
2019-01-15T14:42:50.387Z,2.60
2019-01-15T14:45:57.102Z,3.07
2019-01-15T14:48:54.001Z,2.83
2019-01-15T14:51:38.158Z,2.83
2019-01-15T14:54:27.313Z,3.63
2019-01-15T14:57:15.158Z,3.43
2019-01-15T15:00:10.550Z,3.13
2019-01-15T15:03:08.977Z,3.13
2019-01-15T15:05:51.451Z,3.33
2019-01-15T15:08:36.414Z,3.50
2019-01-15T15:11:44.072Z,3.60
2019-01-15T15:14:27.864Z,3.40
2019-01-15T15:17:19.019Z,3.27
2019-01-15T15:19:56.345Z,3.13
2019-01-15T15:22:43.806Z,2.80
2019-01-15T15:25:31.316Z,3.70
2019-01-15T15:28:35.226Z,3.10
2019-01-15T15:31:27.046Z,3.23
2019-01-15T15:34:16.227Z,2.70
2019-01-15T15:37:05.079Z,5.17
2019-01-15T15:39:57.109Z,6.30
2019-01-15T15:42:59.925Z,6.33
2019-01-15T15:46:01.451Z,3.40
2019-01-15T15:48:56.451Z,3.57
2019-01-15T15:51:42.136Z,3.57
2019-01-15T15:54:40.415Z,3.03
2019-01-15T15:57:26.161Z,3.27
2019-01-15T16:00:11.063Z,8.90
2019-01-15T16:03:03.096Z,10.93
2019-01-15T16:05:57.998Z,6.40
2019-01-15T16:08:56.277Z,24.10
2019-01-15T16:11:57.421Z,42.37
2019-01-15T16:14:45.564Z,17.70
2019-01-15T16:17:32.580Z,15.67
2019-01-15T16:20:30.049Z,11.67
2019-01-15T16:23:24.732Z,13.10
2019-01-15T16:26:16.867Z,41.03
2019-01-15T16:29:13.076Z,35.87
2019-01-15T16:31:57.749Z,11.57
2019-01-15T16:34:59.313Z,7.33
2019-01-15T16:37:48.682Z,9.77
2019-01-15T16:40:35.186Z,16.70
2019-01-15T16:43:23.942Z,12.97
2019-01-15T16:46:13.720Z,17.47
2019-01-15T16:49:00.940Z,21.53
2019-01-15T16:51:48.876Z,11.30
2019-01-15T16:54:44.186Z,10.37
2019-01-15T16:57:42.669Z,7.67
2019-01-15T17:00:34.395Z,8.27
2019-01-15T17:03:22.434Z,14.83
2019-01-15T17:06:02.376Z,8.53
2019-01-15T17:08:54.723Z,11.93
2019-01-15T17:11:42.658Z,15.17
2019-01-15T17:14:34.589Z,15.87
2019-01-15T17:17:32.663Z,36.00
2019-01-15T17:20:26.027Z,17.62
2019-01-15T17:23:19.074Z,14.10
2019-01-15T17:26:32.835Z,6.73
2019-01-15T17:29:27.421Z,5.53
2019-01-15T17:32:19.757Z,6.03
2019-01-15T17:35:07.593Z,6.23
2019-01-15T17:38:05.970Z,4.50
2019-01-15T17:41:10.395Z,4.80
2019-01-15T17:44:02.632Z,4.87
2019-01-15T17:47:00.911Z,5.10
2019-01-15T17:49:59.190Z,4.67
2019-01-15T17:52:51.631Z,4.37
2019-01-15T17:55:39.568Z,4.37
2019-01-15T17:58:38.051Z,5.00
2019-01-15T18:01:26.091Z,5.80
2019-01-15T18:04:15.360Z,5.60
2019-01-15T18:07:10.773Z,3.87
2019-01-15T18:09:58.910Z,4.43
2019-01-15T18:13:06.406Z,4.93
2019-01-15T18:15:49.113Z,3.60
2019-01-15T18:18:50.677Z,3.80
2019-01-15T18:21:45.984Z,4.00
2019-01-15T18:24:43.443Z,4.13
2019-01-15T18:27:32.609Z,4.47
2019-01-15T18:30:21.569Z,3.60
2019-01-15T18:33:09.301Z,3.80
2019-01-15T18:36:02.868Z,3.63
2019-01-15T18:38:55.106Z,5.43
2019-01-15T18:41:44.271Z,5.47
2019-01-15T18:44:37.332Z,40.63
2019-01-15T18:47:35.708Z,17.10
2019-01-15T18:50:31.633Z,10.30
2019-01-15T18:53:23.870Z,6.80
2019-01-15T18:56:18.976Z,8.10
2019-01-15T18:59:06.807Z,10.67
2019-01-15T19:01:59.147Z,7.87
2019-01-15T19:04:47.185Z,6.80
2019-01-15T19:07:48.540Z,6.03
2019-01-15T19:10:36.781Z,6.97
2019-01-15T19:13:41.511Z,10.30
2019-01-15T19:16:30.676Z,12.67
2019-01-15T19:19:25.781Z,16.63
2019-01-15T19:22:15.769Z,14.87
2019-01-15T19:25:01.960Z,20.57
2019-01-15T19:28:09.354Z,17.70
2019-01-15T19:30:58.620Z,29.93
2019-01-15T19:33:57.105Z,25.97
2019-01-15T19:36:53.437Z,19.33
2019-01-15T19:39:55.095Z,16.83
2019-01-15T19:42:40.053Z,16.17
2019-01-15T19:45:36.711Z,24.23
2019-01-15T19:48:25.974Z,21.37
2019-01-15T19:51:24.558Z,17.67
2019-01-15T19:54:13.824Z,20.03
2019-01-15T19:57:08.828Z,20.10
2019-01-15T19:59:55.943Z,77.30
2019-01-15T20:02:51.253Z,28.53
2019-01-15T20:05:52.708Z,21.63
2019-01-15T20:08:41.054Z,26.90
2019-01-15T20:11:33.290Z,18.30
2019-01-15T20:14:37.713Z,18.50
2019-01-15T20:17:25.139Z,23.97
2019-01-15T20:20:14.405Z,17.87
2019-01-15T20:23:21.798Z,12.37
2019-01-15T20:26:09.939Z,14.60
2019-01-15T20:28:57.772Z,12.03
2019-01-15T20:31:57.375Z,15.73
2019-01-15T20:35:04.981Z,16.03
2019-01-15T20:37:55.885Z,20.93
2019-01-15T20:40:50.070Z,15.83
2019-01-15T20:43:37.801Z,16.17
2019-01-15T20:46:27.067Z,9.10
2019-01-15T20:49:15.211Z,8.83
2019-01-15T20:51:58.541Z,11.70
2019-01-15T20:54:55.077Z,11.70
2019-01-15T20:57:49.361Z,11.27
2019-01-15T21:00:56.549Z,15.47
2019-01-15T21:03:45.930Z,9.57
2019-01-15T21:06:35.187Z,8.90
2019-01-15T21:09:25.581Z,7.50
2019-01-15T21:12:14.747Z,9.77
2019-01-15T21:15:04.618Z,9.57
2019-01-15T21:18:06.081Z,8.53
2019-01-15T21:20:58.523Z,8.40
2019-01-15T21:24:00.079Z,8.87
2019-01-15T21:26:40.838Z,9.87
2019-01-15T21:29:20.895Z,8.50
2019-01-15T21:32:18.872Z,8.77
2019-01-15T21:35:20.027Z,8.63
2019-01-15T21:38:08.057Z,9.07
2019-01-15T21:40:57.329Z,8.07
2019-01-15T21:44:01.648Z,7.97
2019-01-15T21:46:50.913Z,8.60
2019-01-15T21:49:46.117Z,8.53
2019-01-15T21:52:47.654Z,7.83
2019-01-15T21:55:27.616Z,7.40
2019-01-15T21:58:15.460Z,7.23
2019-01-15T22:01:09.539Z,8.13
2019-01-15T22:04:10.888Z,7.13
2019-01-15T22:07:18.487Z,7.47
2019-01-15T22:10:10.519Z,7.10
2019-01-15T22:12:58.559Z,7.30
2019-01-15T22:15:53.664Z,7.20
2019-01-15T22:18:41.804Z,7.00
2019-01-15T22:21:37.318Z,6.63
2019-01-15T22:24:25.459Z,7.17
2019-01-15T22:27:12.771Z,8.50
2019-01-15T22:30:20.460Z,7.73
2019-01-15T22:33:08.520Z,7.90
2019-01-15T22:36:07.002Z,9.00
2019-01-15T22:38:56.271Z,14.33
2019-01-15T22:41:51.785Z,16.70
2019-01-15T22:44:50.165Z,18.87
2019-01-15T22:47:38.330Z,17.27
2019-01-15T22:50:31.261Z,16.57
2019-01-15T22:53:19.505Z,17.93
2019-01-15T22:56:08.773Z,17.83
2019-01-15T22:59:13.504Z,19.87
2019-01-15T23:02:01.028Z,20.27
2019-01-15T23:04:53.166Z,21.13
2019-01-15T23:07:42.439Z,19.97
2019-01-15T23:10:20.331Z,19.27
2019-01-15T23:13:06.825Z,17.73
2019-01-15T23:15:52.010Z,15.53
2019-01-15T23:18:36.059Z,12.70
2019-01-15T23:21:24.201Z,9.47
2019-01-15T23:24:22.479Z,10.27
2019-01-15T23:27:10.826Z,9.47
2019-01-15T23:30:00.099Z,9.67
2019-01-15T23:32:48.747Z,11.80
2019-01-15T23:35:50.098Z,11.60
2019-01-15T23:38:51.363Z,10.87
2019-01-15T23:41:41.638Z,11.70
2019-01-15T23:44:37.050Z,11.77
2019-01-15T23:47:26.323Z,11.30
2019-01-15T23:50:14.561Z,11.63
2019-01-15T23:53:01.577Z,12.00
2019-01-15T23:55:52.695Z,12.53
2019-01-15T23:58:37.662Z,14.80
